createdAt,value
2019-01-21T00:00:48.320Z,-0.60
2019-01-21T00:03:17.941Z,-0.60
2019-01-21T00:05:47.695Z,-0.60
2019-01-21T00:08:17.294Z,-0.60
2019-01-21T00:10:46.915Z,-0.70
2019-01-21T00:13:16.517Z,-0.70
2019-01-21T00:15:46.446Z,-0.60
2019-01-21T00:18:16.087Z,-0.60
2019-01-21T00:20:45.860Z,-0.60
2019-01-21T00:23:15.467Z,-0.60
2019-01-21T00:25:45.869Z,-0.50
2019-01-21T00:28:15.594Z,-0.60
2019-01-21T00:30:45.291Z,-0.60
2019-01-21T00:33:15.011Z,-0.70
2019-01-21T00:35:44.611Z,-0.70
2019-01-21T00:38:14.297Z,-0.60
2019-01-21T00:40:44.006Z,-0.60
2019-01-21T00:43:13.732Z,-0.60
2019-01-21T00:45:43.337Z,-0.60
2019-01-21T00:48:13.059Z,-0.50
2019-01-21T00:50:43.268Z,-0.50
2019-01-21T00:53:12.887Z,-0.50
2019-01-21T00:55:42.810Z,-0.50
2019-01-21T00:58:12.423Z,-0.50
2019-01-21T01:00:42.603Z,-0.50
2019-01-21T01:03:12.400Z,-0.50
2019-01-21T01:05:42.127Z,-0.40
2019-01-21T01:08:11.847Z,-0.50
2019-01-21T01:10:41.453Z,-0.50
2019-01-21T01:13:11.102Z,-0.50
2019-01-21T01:15:40.717Z,-0.50
2019-01-21T01:18:10.546Z,-0.50
2019-01-21T01:20:40.153Z,-0.50
2019-01-21T01:23:09.791Z,-0.60
2019-01-21T01:25:39.502Z,-0.60
2019-01-21T01:28:09.306Z,-0.60
2019-01-21T01:30:39.583Z,-0.60
2019-01-21T01:33:09.321Z,-0.60
2019-01-21T01:35:39.088Z,-0.60
2019-01-21T01:38:08.866Z,-0.60
2019-01-21T01:40:39.084Z,-0.80
2019-01-21T01:43:09.118Z,-0.90
2019-01-21T01:45:38.998Z,-0.90
2019-01-21T01:48:08.710Z,-1.10
2019-01-21T01:50:38.535Z,-1.10
2019-01-21T01:53:08.229Z,-1.10
2019-01-21T01:55:37.941Z,-1.00
2019-01-21T01:58:07.696Z,-1.00
2019-01-21T02:00:37.468Z,-1.10
2019-01-21T02:03:07.450Z,-1.10
2019-01-21T02:05:37.158Z,-1.20
2019-01-21T02:08:06.789Z,-1.30
2019-01-21T02:10:36.384Z,-1.20
2019-01-21T02:13:06.614Z,-1.30
2019-01-21T02:15:36.377Z,-1.30
2019-01-21T02:18:06.176Z,-1.30
2019-01-21T02:20:35.894Z,-1.20
2019-01-21T02:23:05.586Z,-1.20
2019-01-21T02:25:38.771Z,-1.20
2019-01-21T02:28:36.914Z,-1.30
2019-01-21T02:31:28.677Z,-1.30
2019-01-21T02:34:01.392Z,-1.40
2019-01-21T02:36:49.002Z,-1.50
2019-01-21T02:39:24.523Z,-1.40
2019-01-21T02:41:57.438Z,-1.40
2019-01-21T02:44:33.392Z,-1.50
2019-01-21T02:47:08.898Z,-1.60
2019-01-21T02:50:11.420Z,-1.50
2019-01-21T02:53:18.580Z,-1.60
2019-01-21T02:55:57.405Z,-1.60
2019-01-21T02:58:32.997Z,-1.70
2019-01-21T03:01:05.910Z,-1.70
2019-01-21T03:03:52.828Z,-1.90
2019-01-21T03:06:28.246Z,-1.80
2019-01-21T03:09:15.923Z,-1.80
2019-01-21T03:12:06.517Z,-1.80
2019-01-21T03:14:59.807Z,-1.90
2019-01-21T03:17:56.298Z,-1.90
2019-01-21T03:20:34.509Z,-1.90
2019-01-21T03:23:07.398Z,-2.00
2019-01-21T03:25:45.746Z,-2.00
2019-01-21T03:28:30.234Z,-2.00
2019-01-21T03:31:14.497Z,-2.20
2019-01-21T03:34:03.545Z,-2.30
2019-01-21T03:36:45.131Z,-2.20
2019-01-21T03:39:41.916Z,-2.20
2019-01-21T03:42:14.698Z,-2.30
2019-01-21T03:44:53.443Z,-2.20
2019-01-21T03:47:28.831Z,-2.40
2019-01-21T03:50:16.219Z,-2.40
2019-01-21T03:52:57.506Z,-2.60
2019-01-21T03:55:27.988Z,-2.70
2019-01-21T03:58:09.076Z,-2.70
2019-01-21T04:00:41.977Z,-2.60
2019-01-21T04:03:35.174Z,-2.50
2019-01-21T04:06:08.116Z,-2.50
2019-01-21T04:08:46.683Z,-2.50
2019-01-21T04:11:20.130Z,-2.60
2019-01-21T04:13:58.622Z,-2.70
2019-01-21T04:16:46.561Z,-2.80
2019-01-21T04:19:37.174Z,-3.00
2019-01-21T04:22:18.575Z,-3.00
2019-01-21T04:24:51.280Z,-2.90
2019-01-21T04:27:32.671Z,-2.90
2019-01-21T04:30:19.987Z,-2.90
2019-01-21T04:33:04.933Z,-3.10
2019-01-21T04:35:41.051Z,-3.10
2019-01-21T04:38:33.222Z,-3.10
2019-01-21T04:41:06.034Z,-3.20
2019-01-21T04:43:47.432Z,-3.10
2019-01-21T04:46:22.754Z,-3.10
2019-01-21T04:49:07.316Z,-3.10
2019-01-21T04:51:56.783Z,-3.20
2019-01-21T04:54:46.915Z,-3.20
2019-01-21T04:57:35.037Z,-3.20
2019-01-21T05:00:23.804Z,-3.20
2019-01-21T05:03:14.376Z,-3.30
2019-01-21T05:05:50.145Z,-3.30
2019-01-21T05:08:55.693Z,-3.30
2019-01-21T05:12:01.683Z,-3.50
2019-01-21T05:14:40.409Z,-3.50
2019-01-21T05:17:27.962Z,-3.50
2019-01-21T05:20:03.476Z,-3.70
2019-01-21T05:22:42.127Z,-3.70
2019-01-21T05:25:20.739Z,-3.70
2019-01-21T05:27:57.623Z,-3.80
2019-01-21T05:30:42.213Z,-3.90
2019-01-21T05:33:20.900Z,-3.80
2019-01-21T05:36:17.556Z,-3.70
2019-01-21T05:38:58.832Z,-3.60
2019-01-21T05:41:43.314Z,-3.70
2019-01-21T05:44:40.122Z,-3.70
2019-01-21T05:47:18.597Z,-3.70
2019-01-21T05:50:16.678Z,-3.50
2019-01-21T05:52:58.001Z,-3.40
2019-01-21T05:55:56.620Z,-3.30
2019-01-21T05:58:56.117Z,-3.30
2019-01-21T06:01:44.942Z,-3.30
2019-01-21T06:04:26.774Z,-3.20
2019-01-21T06:07:25.042Z,-3.10
2019-01-21T06:10:03.488Z,-3.00
2019-01-21T06:12:53.968Z,-3.00
2019-01-21T06:15:26.951Z,-3.30
2019-01-21T06:18:05.541Z,-3.40
2019-01-21T06:20:56.058Z,-3.40
2019-01-21T06:23:28.773Z,-3.50
2019-01-21T06:26:10.373Z,-3.60
2019-01-21T06:29:02.290Z,-3.60
2019-01-21T06:31:46.988Z,-3.70
2019-01-21T06:34:36.159Z,-3.60
2019-01-21T06:37:11.556Z,-3.60
2019-01-21T06:40:02.008Z,-3.60
2019-01-21T06:42:55.507Z,-3.60
2019-01-21T06:45:30.805Z,-3.50
2019-01-21T06:48:12.691Z,-3.40
2019-01-21T06:51:07.641Z,-3.40
2019-01-21T06:53:46.375Z,-3.50
2019-01-21T06:56:47.474Z,-3.50
2019-01-21T06:59:39.504Z,-3.40
2019-01-21T07:02:30.238Z,-3.50
2019-01-21T07:05:05.758Z,-3.40
2019-01-21T07:08:01.065Z,-3.30
2019-01-21T07:10:36.616Z,-3.40
2019-01-21T07:13:36.146Z,-3.50
2019-01-21T07:16:27.860Z,-3.40
2019-01-21T07:19:00.641Z,-3.40
2019-01-21T07:22:00.269Z,-3.30
2019-01-21T07:24:38.438Z,-3.20
2019-01-21T07:27:46.457Z,-3.20
2019-01-21T07:30:25.783Z,-3.20
2019-01-21T07:33:07.190Z,-3.20
2019-01-21T07:35:54.533Z,-3.20
2019-01-21T07:38:30.125Z,-3.20
2019-01-21T07:41:17.440Z,-3.20
2019-01-21T07:43:55.920Z,-3.20
2019-01-21T07:46:34.582Z,-3.20
2019-01-21T07:49:25.245Z,-3.10
2019-01-21T07:52:21.662Z,-3.10
2019-01-21T07:55:05.989Z,-3.20
2019-01-21T07:57:55.039Z,-3.20
2019-01-21T08:00:45.388Z,-3.30
2019-01-21T08:03:29.375Z,-3.20
2019-01-21T08:06:08.094Z,-3.00
2019-01-21T08:08:55.781Z,-3.00
2019-01-21T08:11:40.334Z,-3.00
2019-01-21T08:14:20.423Z,-2.90
2019-01-21T08:17:20.110Z,-2.90
2019-01-21T08:20:04.658Z,-2.80
2019-01-21T08:22:49.043Z,-2.80
2019-01-21T08:25:38.464Z,-2.70
2019-01-21T08:28:23.009Z,-2.70
2019-01-21T08:31:04.740Z,-2.60
2019-01-21T08:33:46.186Z,-2.60
2019-01-21T08:36:27.486Z,-2.40
2019-01-21T08:39:28.500Z,-2.40
2019-01-21T08:42:12.895Z,-2.20
2019-01-21T08:45:01.883Z,-2.10
2019-01-21T08:47:43.274Z,-2.20
2019-01-21T08:50:18.588Z,-2.10
2019-01-21T08:53:06.283Z,-2.00
2019-01-21T08:55:41.540Z,-1.90
2019-01-21T08:58:36.238Z,-1.80
2019-01-21T09:01:11.708Z,-1.80
2019-01-21T09:03:50.281Z,-1.70
2019-01-21T09:06:31.902Z,-1.70
2019-01-21T09:09:13.362Z,-1.60
2019-01-21T09:11:51.900Z,-1.60
2019-01-21T09:14:24.868Z,-1.60
2019-01-21T09:17:13.478Z,-1.70
2019-01-21T09:20:10.644Z,-1.80
2019-01-21T09:22:47.073Z,-1.80
2019-01-21T09:25:37.846Z,-1.70
2019-01-21T09:28:17.846Z,-1.70
2019-01-21T09:30:59.444Z,-1.60
2019-01-21T09:33:44.035Z,-1.50
2019-01-21T09:36:27.913Z,-1.40
2019-01-21T09:39:04.787Z,-1.50
2019-01-21T09:41:43.540Z,-1.50
2019-01-21T09:44:16.943Z,-1.60
2019-01-21T09:46:45.969Z,-1.50
2019-01-21T09:49:14.764Z,-1.40
2019-01-21T09:51:48.522Z,-1.30
2019-01-21T09:54:20.428Z,-1.20
2019-01-21T09:56:50.241Z,-1.20
2019-01-21T09:59:22.496Z,-1.20
2019-01-21T10:01:55.201Z,-1.20
2019-01-21T10:04:43.175Z,-1.10
2019-01-21T10:07:24.582Z,-1.00
2019-01-21T10:10:22.716Z,-1.00
2019-01-21T10:13:04.006Z,-1.00
2019-01-21T10:15:42.794Z,-0.90
2019-01-21T10:18:24.470Z,-0.90
2019-01-21T10:20:57.178Z,-0.90
2019-01-21T10:23:41.770Z,-0.80
2019-01-21T10:26:36.938Z,-0.80
2019-01-21T10:29:24.401Z,-0.80
2019-01-21T10:32:13.302Z,-0.80
2019-01-21T10:34:45.993Z,-0.60
2019-01-21T10:37:52.884Z,-0.70
2019-01-21T10:40:44.578Z,-0.60
2019-01-21T10:43:28.862Z,-0.60
2019-01-21T10:46:07.213Z,-0.60
2019-01-21T10:48:42.570Z,-0.70
2019-01-21T10:51:19.048Z,-0.80
2019-01-21T10:54:00.794Z,-0.80
2019-01-21T10:56:33.522Z,-0.70
2019-01-21T10:59:11.792Z,-0.60
2019-01-21T11:01:44.515Z,-0.50
2019-01-21T11:04:47.308Z,-0.40
2019-01-21T11:07:37.658Z,-0.30
2019-01-21T11:10:32.592Z,-0.30
2019-01-21T11:13:14.501Z,-0.20
2019-01-21T11:15:47.195Z,-0.40
2019-01-21T11:18:37.776Z,-0.20
2019-01-21T11:21:22.246Z,-0.20
2019-01-21T11:24:03.761Z,-0.20
2019-01-21T11:26:39.023Z,-0.10
2019-01-21T11:29:20.564Z,0.00
2019-01-21T11:32:07.948Z,-0.10
2019-01-21T11:34:59.850Z,0.00
2019-01-21T11:37:32.540Z,-0.10
2019-01-21T11:40:13.811Z,-0.10
2019-01-21T11:42:46.494Z,0.00
2019-01-21T11:45:22.006Z,0.10
2019-01-21T11:48:12.530Z,0.20
2019-01-21T11:50:57.112Z,0.10
2019-01-21T11:53:32.358Z,0.00
2019-01-21T11:56:07.642Z,0.00
2019-01-21T11:58:40.534Z,0.00
2019-01-21T12:01:15.766Z,0.10
2019-01-21T12:04:03.588Z,0.20
2019-01-21T12:06:45.306Z,0.30
2019-01-21T12:09:17.975Z,0.30
2019-01-21T12:11:53.406Z,0.30
2019-01-21T12:14:41.360Z,0.40
2019-01-21T12:17:35.187Z,0.30
2019-01-21T12:20:24.255Z,0.20
2019-01-21T12:23:05.582Z,0.10
2019-01-21T12:25:56.105Z,0.10
2019-01-21T12:28:46.566Z,0.00
2019-01-21T12:31:22.176Z,0.00
2019-01-21T12:33:57.802Z,0.00
2019-01-21T12:36:30.511Z,0.00
2019-01-21T12:39:19.755Z,-0.20
2019-01-21T12:42:07.506Z,-0.20
2019-01-21T12:44:59.620Z,-0.20
2019-01-21T12:47:44.108Z,-0.10
2019-01-21T12:50:24.127Z,0.00
2019-01-21T12:53:05.605Z,0.00
2019-01-21T12:55:43.870Z,0.00
2019-01-21T12:58:22.042Z,0.00
2019-01-21T13:01:09.641Z,0.10
2019-01-21T13:04:04.522Z,0.30
2019-01-21T13:07:02.681Z,0.20
2019-01-21T13:09:35.382Z,0.30
2019-01-21T13:12:11.110Z,0.30
2019-01-21T13:14:43.812Z,0.30
2019-01-21T13:17:16.598Z,0.30
2019-01-21T13:19:52.205Z,0.20
2019-01-21T13:22:39.877Z,0.20
2019-01-21T13:25:36.951Z,0.10
2019-01-21T13:28:31.763Z,0.20
2019-01-21T13:31:22.421Z,0.10
2019-01-21T13:34:03.764Z,0.20
2019-01-21T13:36:46.213Z,0.20
2019-01-21T13:39:39.757Z,0.30
2019-01-21T13:42:12.587Z,0.40
2019-01-21T13:44:45.272Z,0.50
2019-01-21T13:47:42.213Z,0.40
2019-01-21T13:50:17.602Z,0.40
2019-01-21T13:52:55.811Z,0.40
2019-01-21T13:55:58.329Z,0.50
2019-01-21T13:58:59.432Z,0.50
2019-01-21T14:01:56.473Z,0.50
2019-01-21T14:04:34.821Z,0.50
2019-01-21T14:07:07.530Z,0.50
2019-01-21T14:09:56.487Z,0.60
2019-01-21T14:12:38.268Z,0.60
2019-01-21T14:15:32.929Z,0.60
2019-01-21T14:18:26.554Z,0.50
2019-01-21T14:21:11.222Z,0.60
2019-01-21T14:23:52.240Z,0.60
2019-01-21T14:27:19.131Z,0.50
2019-01-21T14:29:51.920Z,0.50
2019-01-21T14:32:39.576Z,0.50
2019-01-21T14:35:15.153Z,0.50
2019-01-21T14:37:59.830Z,0.60
2019-01-21T14:40:50.658Z,0.60
2019-01-21T14:43:29.285Z,0.60
2019-01-21T14:46:17.147Z,0.60
2019-01-21T14:48:53.302Z,0.60
2019-01-21T14:51:47.226Z,0.60
2019-01-21T14:54:22.671Z,0.50
2019-01-21T14:57:17.482Z,0.50
2019-01-21T15:00:08.582Z,0.50
2019-01-21T15:02:46.976Z,0.50
2019-01-21T15:05:45.751Z,0.50
2019-01-21T15:08:18.407Z,0.50
2019-01-21T15:11:09.064Z,0.40
2019-01-21T15:13:47.738Z,0.40
2019-01-21T15:16:29.850Z,0.40
2019-01-21T15:19:11.186Z,0.30
2019-01-21T15:21:52.959Z,0.40
2019-01-21T15:24:46.496Z,0.40
2019-01-21T15:27:25.060Z,0.50
2019-01-21T15:30:03.216Z,0.60
2019-01-21T15:32:38.553Z,0.50
2019-01-21T15:35:20.759Z,0.50
2019-01-21T15:37:59.854Z,0.50
2019-01-21T15:40:53.913Z,0.50
2019-01-21T15:43:35.044Z,0.50
2019-01-21T15:46:16.784Z,0.50
2019-01-21T15:49:14.545Z,0.50
2019-01-21T15:51:49.994Z,0.50
2019-01-21T15:54:28.776Z,0.50
2019-01-21T15:57:07.206Z,0.50
2019-01-21T16:00:02.746Z,0.50
2019-01-21T16:02:44.006Z,0.50
2019-01-21T16:05:25.595Z,0.50
2019-01-21T16:07:58.301Z,0.50
2019-01-21T16:10:40.082Z,0.50
2019-01-21T16:13:15.832Z,0.50
2019-01-21T16:15:48.514Z,0.50
2019-01-21T16:18:27.410Z,0.50
2019-01-21T16:21:16.620Z,0.50
2019-01-21T16:24:22.699Z,0.50
2019-01-21T16:26:55.418Z,0.40
2019-01-21T16:29:31.166Z,0.20
2019-01-21T16:32:01.211Z,0.10
2019-01-21T16:34:40.123Z,0.00
2019-01-21T16:37:18.656Z,0.00
2019-01-21T16:40:10.689Z,0.00
2019-01-21T16:42:40.280Z,-0.10
2019-01-21T16:45:11.510Z,-0.10
2019-01-21T16:47:41.178Z,-0.10
2019-01-21T16:50:11.258Z,-0.10
2019-01-21T16:52:40.989Z,-0.10
2019-01-21T16:55:10.570Z,-0.20
2019-01-21T16:57:40.183Z,-0.20
2019-01-21T17:00:12.928Z,-0.10
2019-01-21T17:02:42.542Z,-0.10
2019-01-21T17:05:14.151Z,-0.20
2019-01-21T17:07:43.762Z,-0.10
2019-01-21T17:10:13.758Z,-0.20
2019-01-21T17:12:43.352Z,-0.20
2019-01-21T17:15:16.506Z,-0.20
2019-01-21T17:17:46.181Z,-0.10
2019-01-21T17:20:21.370Z,0.10
2019-01-21T17:22:50.970Z,0.20
2019-01-21T17:25:20.845Z,0.20
2019-01-21T17:27:50.436Z,0.20
2019-01-21T17:30:20.177Z,0.20
2019-01-21T17:32:51.378Z,0.20
2019-01-21T17:35:21.013Z,0.20
2019-01-21T17:37:50.786Z,0.20
2019-01-21T17:40:20.486Z,0.10
2019-01-21T17:42:50.087Z,0.10
2019-01-21T17:45:19.968Z,0.20
2019-01-21T17:47:49.565Z,0.20
2019-01-21T17:50:19.319Z,0.20
2019-01-21T17:52:48.920Z,0.20
2019-01-21T17:55:18.624Z,0.20
2019-01-21T17:57:48.251Z,0.20
2019-01-21T18:00:20.844Z,0.20
2019-01-21T18:02:50.455Z,0.20
2019-01-21T18:05:20.359Z,0.20
2019-01-21T18:07:49.960Z,0.30
2019-01-21T18:10:19.658Z,0.20
2019-01-21T18:12:49.273Z,0.30
2019-01-21T18:15:19.236Z,0.30
2019-01-21T18:17:49.349Z,0.30
2019-01-21T18:20:21.128Z,0.30
2019-01-21T18:22:50.726Z,0.30
2019-01-21T18:25:20.451Z,0.30
2019-01-21T18:27:50.546Z,0.30
2019-01-21T18:30:22.257Z,0.40
2019-01-21T18:32:51.972Z,0.40
2019-01-21T18:35:21.674Z,0.40
2019-01-21T18:37:51.264Z,0.30
2019-01-21T18:40:21.624Z,0.30
2019-01-21T18:42:51.310Z,0.20
2019-01-21T18:45:25.073Z,0.20
2019-01-21T18:47:54.766Z,0.20
2019-01-21T18:50:24.458Z,0.20
2019-01-21T18:52:54.508Z,0.10
2019-01-21T18:55:24.222Z,0.20
2019-01-21T18:57:55.950Z,0.10
2019-01-21T19:00:25.630Z,0.20
2019-01-21T19:02:55.555Z,0.10
2019-01-21T19:05:25.251Z,0.30
2019-01-21T19:07:54.862Z,0.30
2019-01-21T19:10:24.506Z,0.30
2019-01-21T19:12:54.114Z,0.20
2019-01-21T19:15:26.823Z,0.30
2019-01-21T19:17:56.601Z,0.30
2019-01-21T19:20:26.333Z,0.20
2019-01-21T19:22:55.996Z,0.10
2019-01-21T19:25:25.646Z,0.10
2019-01-21T19:27:55.426Z,0.20
2019-01-21T19:30:27.294Z,0.30
2019-01-21T19:32:57.050Z,0.30
2019-01-21T19:35:32.819Z,0.30
2019-01-21T19:38:02.789Z,0.30
2019-01-21T19:40:32.401Z,0.30
2019-01-21T19:43:02.469Z,0.30
2019-01-21T19:45:32.105Z,0.20
2019-01-21T19:48:01.814Z,0.20
2019-01-21T19:50:31.526Z,0.20
2019-01-21T19:53:01.421Z,0.10
2019-01-21T19:55:57.960Z,0.10
2019-01-21T19:58:27.673Z,0.00
2019-01-21T20:00:58.093Z,0.00
2019-01-21T20:03:27.735Z,-0.10
2019-01-21T20:05:57.628Z,-0.10
2019-01-21T20:08:27.271Z,-0.10
2019-01-21T20:10:56.939Z,-0.10
2019-01-21T20:13:26.577Z,-0.20
2019-01-21T20:15:56.256Z,-0.20
2019-01-21T20:18:25.885Z,-0.20
2019-01-21T20:20:55.703Z,-0.10
2019-01-21T20:23:25.334Z,0.00
2019-01-21T20:25:54.931Z,0.00
2019-01-21T20:28:24.553Z,0.10
2019-01-21T20:30:54.150Z,0.10
2019-01-21T20:33:23.788Z,0.10
2019-01-21T20:35:53.384Z,0.10
2019-01-21T20:38:23.081Z,0.20
2019-01-21T20:40:52.694Z,0.10
2019-01-21T20:43:22.314Z,0.10
2019-01-21T20:45:51.942Z,0.10
2019-01-21T20:48:21.725Z,0.00
2019-01-21T20:50:51.338Z,0.00
2019-01-21T20:53:20.949Z,0.00
2019-01-21T20:55:50.664Z,0.00
2019-01-21T20:58:20.702Z,0.00
2019-01-21T21:00:50.478Z,0.00
2019-01-21T21:03:20.285Z,0.00
2019-01-21T21:05:50.159Z,0.00
2019-01-21T21:08:19.798Z,0.00
2019-01-21T21:10:49.507Z,0.10
2019-01-21T21:13:19.306Z,0.10
2019-01-21T21:15:48.980Z,0.10
2019-01-21T21:18:18.604Z,0.10
2019-01-21T21:20:48.212Z,0.10
2019-01-21T21:23:18.410Z,0.10
2019-01-21T21:25:48.008Z,0.10
2019-01-21T21:28:17.642Z,0.10
2019-01-21T21:30:47.237Z,0.00
2019-01-21T21:33:16.872Z,0.00
2019-01-21T21:35:46.472Z,0.00
2019-01-21T21:38:16.102Z,0.00
2019-01-21T21:40:45.710Z,-0.10
2019-01-21T21:43:15.346Z,0.00
2019-01-21T21:45:44.946Z,0.00
2019-01-21T21:48:14.668Z,0.00
2019-01-21T21:50:44.582Z,0.10
2019-01-21T21:53:14.213Z,0.10
2019-01-21T21:55:43.823Z,0.00
2019-01-21T21:58:13.446Z,0.00
2019-01-21T22:00:43.049Z,-0.10
2019-01-21T22:03:12.787Z,-0.10
2019-01-21T22:05:42.410Z,0.00
2019-01-21T22:08:12.033Z,0.00
2019-01-21T22:10:41.642Z,0.00
2019-01-21T22:13:11.271Z,0.00
2019-01-21T22:15:40.881Z,0.00
2019-01-21T22:18:10.506Z,0.00
2019-01-21T22:20:40.116Z,0.00
2019-01-21T22:23:09.755Z,-0.10
2019-01-21T22:25:39.470Z,-0.20
2019-01-21T22:28:09.096Z,-0.20
2019-01-21T22:30:38.801Z,-0.20
2019-01-21T22:33:08.475Z,-0.20
2019-01-21T22:35:38.219Z,-0.20
2019-01-21T22:38:07.935Z,-0.20
2019-01-21T22:40:37.577Z,-0.20
2019-01-21T22:43:07.202Z,-0.20
2019-01-21T22:45:36.907Z,-0.20
2019-01-21T22:48:06.532Z,-0.20
2019-01-21T22:50:36.351Z,-0.10
2019-01-21T22:53:05.965Z,-0.20
2019-01-21T22:55:35.585Z,-0.30
2019-01-21T22:58:05.268Z,-0.40
2019-01-21T23:00:39.716Z,-0.40
2019-01-21T23:03:09.775Z,-0.50
2019-01-21T23:05:39.469Z,-0.50
2019-01-21T23:08:09.091Z,-0.50
2019-01-21T23:10:39.049Z,-0.40
2019-01-21T23:13:08.801Z,-0.20
2019-01-21T23:15:38.581Z,-0.20
2019-01-21T23:18:08.562Z,-0.20
2019-01-21T23:20:38.205Z,-0.20
2019-01-21T23:23:08.182Z,-0.20
2019-01-21T23:25:37.815Z,-0.20
2019-01-21T23:28:07.416Z,-0.20
2019-01-21T23:30:37.152Z,-0.20
2019-01-21T23:33:07.011Z,-0.20
2019-01-21T23:35:37.075Z,-0.20
2019-01-21T23:38:06.858Z,-0.30
2019-01-21T23:40:36.491Z,-0.30
2019-01-21T23:43:06.107Z,-0.30
2019-01-21T23:45:35.923Z,-0.30
2019-01-21T23:48:05.930Z,-0.30
2019-01-21T23:50:35.567Z,-0.30
2019-01-21T23:53:05.419Z,-0.20
2019-01-21T23:55:35.175Z,-0.30
2019-01-21T23:58:04.845Z,-0.40
